Time;durP1;ratioP1;P1;durP2;ratioP2;P2;SDS_P1;SDS_P2;PMS_P1;PMS_P2;Temp;Humidity;BMP_temperature;BMP_pressure;BME280_temperature;BME280_humidity;BME280_pressure;Samples;Min_cycle;Max_cycle;Signal;HPM_P1;HPM_P2
2022/12/14 00:00:39;;;;;;;43.33;25.42;;;-5.30;99.90;;;;;;5070962;28;20091;-36
2022/12/14 00:03:06;;;;;;;44.08;24.67;;;-5.30;99.90;;;;;;5071261;28;20041;-36
2022/12/14 00:05:32;;;;;;;48.95;26.63;;;-5.40;99.90;;;;;;5070839;28;20037;-36
2022/12/14 00:07:57;;;;;;;43.78;25.98;;;-5.40;99.90;;;;;;5064295;28;20159;-36
2022/12/14 00:10:23;;;;;;;49.65;26.40;;;-5.40;99.90;;;;;;5067509;28;20033;-36
2022/12/14 00:12:49;;;;;;;49.08;27.15;;;-5.40;99.90;;;;;;5069771;28;20116;-36
2022/12/14 00:15:14;;;;;;;46.20;26.27;;;-5.40;99.90;;;;;;5054757;28;20129;-36
2022/12/14 00:17:40;;;;;;;52.30;28.17;;;-5.40;99.90;;;;;;5055116;28;20382;-36
2022/12/14 00:20:07;;;;;;;49.50;27.65;;;-5.40;99.90;;;;;;5033058;28;20047;-36
2022/12/14 00:22:33;;;;;;;47.08;25.83;;;-5.50;99.90;;;;;;5055137;28;20032;-36
2022/12/14 00:24:59;;;;;;;51.78;27.23;;;-5.50;99.90;;;;;;5050705;28;20029;-36
2022/12/14 00:27:25;;;;;;;48.25;27.92;;;-5.50;99.90;;;;;;5052579;28;20094;-36
2022/12/14 00:29:51;;;;;;;48.00;26.42;;;-5.50;99.90;;;;;;5053118;28;20402;-38
2022/12/14 00:32:17;;;;;;;47.38;27.95;;;-5.50;99.90;;;;;;5054633;28;20036;-39
2022/12/14 00:34:42;;;;;;;52.13;25.92;;;-5.50;99.90;;;;;;5072263;28;20040;-39
2022/12/14 00:37:08;;;;;;;49.28;24.17;;;-5.60;99.90;;;;;;5050292;28;20413;-38
2022/12/14 00:39:34;;;;;;;49.15;26.60;;;-5.60;99.90;;;;;;5069357;28;20068;-38
2022/12/14 00:42:00;;;;;;;46.03;24.63;;;-5.60;99.90;;;;;;5051251;28;20068;-38
2022/12/14 00:44:25;;;;;;;47.38;26.63;;;-5.60;99.90;;;;;;5050150;28;20029;-37
2022/12/14 00:46:51;;;;;;;47.95;26.35;;;-5.70;99.90;;;;;;5062355;28;20041;-38
2022/12/14 00:49:17;;;;;;;47.50;25.13;;;-5.70;99.90;;;;;;5047137;28;20433;-39
2022/12/14 00:51:42;;;;;;;50.60;27.85;;;-5.70;99.90;;;;;;5027860;28;20045;-38
2022/12/14 00:54:08;;;;;;;44.88;25.70;;;-5.70;99.90;;;;;;5050210;28;20036;-39
2022/12/14 00:56:34;;;;;;;45.08;24.52;;;-5.70;99.90;;;;;;5053831;28;20058;-38
2022/12/14 00:59:03;;;;;;;49.40;26.52;;;-5.80;99.90;;;;;;5047765;28;20033;-38
2022/12/14 01:01:29;;;;;;;44.90;23.80;;;-5.70;99.90;;;;;;5052182;28;20470;-39
2022/12/14 01:04:15;;;;;;;49.08;24.85;;;-5.80;99.90;;;;;;5053594;28;20037;-38
2022/12/14 01:06:43;;;;;;;46.35;24.83;;;-5.80;99.90;;;;;;5053776;28;20171;-38
2022/12/14 01:09:09;;;;;;;43.15;24.80;;;-5.80;99.90;;;;;;5052149;28;20051;-39
2022/12/14 01:11:35;;;;;;;51.05;26.67;;;-5.80;99.90;;;;;;5053503;28;20041;-38
2022/12/14 01:14:01;;;;;;;44.85;24.58;;;-5.80;99.90;;;;;;5048761;28;20040;-38
2022/12/14 01:16:27;;;;;;;47.22;24.42;;;-5.80;99.90;;;;;;5067086;28;20037;-38
2022/12/14 01:18:53;;;;;;;48.83;26.48;;;-5.80;99.90;;;;;;5065973;28;20044;-39
2022/12/14 01:21:23;;;;;;;46.38;24.85;;;-5.80;99.90;;;;;;5051982;28;20047;-38
2022/12/14 01:24:00;;;;;;;45.45;25.05;;;-5.80;99.90;;;;;;5053609;28;20112;-37
2022/12/14 01:26:28;;;;;;;49.88;25.13;;;-5.80;99.90;;;;;;5036973;28;20040;-38
2022/12/14 01:28:57;;;;;;;46.33;24.70;;;-5.80;99.90;;;;;;5052794;28;20060;-39
2022/12/14 01:31:34;;;;;;;48.75;24.52;;;-5.80;99.90;;;;;;5053184;28;20037;-37
2022/12/14 01:34:00;;;;;;;46.33;24.98;;;-5.80;99.90;;;;;;5053632;28;20067;-37
2022/12/14 01:36:32;;;;;;;43.83;24.02;;;-5.80;99.90;;;;;;5051776;28;20068;-37
2022/12/14 01:39:01;;;;;;;45.63;23.85;;;-5.90;99.90;;;;;;5053576;28;20032;-37
2022/12/14 01:41:31;;;;;;;43.42;23.13;;;-5.90;99.90;;;;;;5069967;28;20028;-38
2022/12/14 01:44:23;;;;;;;44.55;23.02;;;-5.90;99.90;;;;;;5047465;28;20037;-38
2022/12/14 01:47:14;;;;;;;42.25;23.58;;;-5.90;99.90;;;;;;5053325;28;20043;-38
2022/12/14 01:49:46;;;;;;;40.08;24.05;;;-5.90;99.90;;;;;;5055935;28;20037;-37
2022/12/14 01:52:24;;;;;;;44.22;23.80;;;-6.00;99.90;;;;;;5053350;28;20482;-39
2022/12/14 01:55:01;;;;;;;44.80;24.30;;;-6.00;99.90;;;;;;5061368;28;20037;-36
2022/12/14 01:57:36;;;;;;;44.28;24.30;;;-6.00;99.90;;;;;;5053273;28;20041;-37
2022/12/14 02:00:05;;;;;;;44.00;23.65;;;-6.00;99.90;;;;;;5048521;28;20037;-37
2022/12/14 02:02:31;;;;;;;39.42;23.35;;;-6.10;99.90;;;;;;5069653;28;20054;-37
2022/12/14 02:05:01;;;;;;;45.20;26.27;;;-6.10;99.90;;;;;;5053044;28;20078;-37
2022/12/14 02:07:29;;;;;;;45.42;23.40;;;-6.10;99.90;;;;;;5071078;28;20516;-37
2022/12/14 02:09:58;;;;;;;42.53;23.88;;;-6.20;99.90;;;;;;5052764;28;20072;-37
2022/12/14 02:12:46;;;;;;;44.72;22.38;;;-6.10;99.90;;;;;;5028033;28;20045;-38
2022/12/14 02:15:12;;;;;;;41.03;22.33;;;-6.20;99.90;;;;;;5049635;28;20056;-37
2022/12/14 02:17:40;;;;;;;48.90;24.13;;;-6.20;99.90;;;;;;5030086;28;20044;-37
2022/12/14 02:20:06;;;;;;;41.70;22.38;;;-6.30;99.90;;;;;;5013020;28;20045;-37
2022/12/14 02:22:32;;;;;;;43.30;23.23;;;-6.30;99.90;;;;;;5048603;28;20392;-36
2022/12/14 02:25:33;;;;;;;49.45;25.90;;;-6.30;99.90;;;;;;5032699;28;20025;-36
2022/12/14 02:28:26;;;;;;;39.03;21.75;;;-6.30;99.90;;;;;;4996775;28;20168;-37
2022/12/14 02:31:06;;;;;;;50.65;23.08;;;-6.30;99.90;;;;;;5039104;28;20041;-38
2022/12/14 02:33:44;;;;;;;46.28;23.35;;;-6.40;99.90;;;;;;5044045;28;20037;-37
2022/12/14 02:36:19;;;;;;;47.17;22.38;;;-6.40;99.90;;;;;;5028765;28;20120;-37
2022/12/14 02:39:22;;;;;;;43.30;22.17;;;-6.40;99.90;;;;;;5029108;28;20052;-37
2022/12/14 02:42:07;;;;;;;45.70;24.90;;;-6.50;99.90;;;;;;5037400;28;20059;-37
2022/12/14 02:44:45;;;;;;;36.17;21.30;;;-6.50;99.90;;;;;;5032723;28;20112;-36
2022/12/14 02:47:25;;;;;;;40.92;22.88;;;-6.60;99.90;;;;;;5032869;28;20045;-37
2022/12/14 02:50:02;;;;;;;43.72;22.55;;;-6.50;99.90;;;;;;5032093;28;20036;-38
2022/12/14 02:52:54;;;;;;;40.13;23.08;;;-6.60;99.90;;;;;;5047770;28;20133;-38
2022/12/14 02:55:30;;;;;;;44.22;22.15;;;-6.60;99.90;;;;;;5046993;28;20142;-37
2022/12/14 02:58:01;;;;;;;41.78;22.48;;;-6.60;99.90;;;;;;5018480;28;20397;-37
2022/12/14 03:00:31;;;;;;;39.50;21.67;;;-6.70;99.90;;;;;;5032278;28;20037;-37
2022/12/14 03:02:58;;;;;;;45.80;21.73;;;-6.70;99.90;;;;;;5029519;28;20044;-37
2022/12/14 03:05:24;;;;;;;47.65;23.23;;;-6.70;99.90;;;;;;5027776;28;20394;-37
2022/12/14 03:07:54;;;;;;;38.60;21.50;;;-6.70;99.90;;;;;;5035162;28;20120;-37
2022/12/14 03:10:41;;;;;;;43.42;20.85;;;-6.80;99.90;;;;;;5053474;28;20036;-37
2022/12/14 03:13:37;;;;;;;42.70;22.33;;;-6.80;99.90;;;;;;5056607;28;20040;-39
2022/12/14 03:16:18;;;;;;;41.47;23.38;;;-6.80;99.90;;;;;;5072706;28;20087;-38
2022/12/14 03:19:06;;;;;;;43.53;22.67;;;-6.80;99.90;;;;;;5070913;28;20041;-37
2022/12/14 03:21:35;;;;;;;43.17;22.73;;;-6.90;99.90;;;;;;5072342;28;20131;-38
2022/12/14 03:24:07;;;;;;;47.72;25.17;;;-6.90;99.90;;;;;;5072745;28;20032;-38
2022/12/14 03:26:59;;;;;;;41.75;22.73;;;-6.80;99.90;;;;;;5073603;28;20056;-38
2022/12/14 03:29:32;;;;;;;41.10;22.10;;;-6.90;99.90;;;;;;5088999;28;20036;-38
2022/12/14 03:32:06;;;;;;;37.80;20.50;;;-6.90;99.90;;;;;;5063934;28;20494;-38
2022/12/14 03:35:01;;;;;;;48.20;23.58;;;-6.90;99.90;;;;;;5072660;28;20036;-38
2022/12/14 03:37:38;;;;;;;49.53;23.80;;;-7.00;99.90;;;;;;5061478;28;20448;-37
2022/12/14 03:40:09;;;;;;;38.28;21.15;;;-7.00;99.90;;;;;;5064947;28;20124;-37
2022/12/14 03:42:48;;;;;;;38.33;21.20;;;-7.00;99.90;;;;;;5070562;28;20028;-38
2022/12/14 03:45:14;;;;;;;46.75;23.92;;;-7.00;99.90;;;;;;5072157;28;20070;-39
2022/12/14 03:47:49;;;;;;;43.15;24.00;;;-7.10;99.90;;;;;;5066329;28;20122;-36
2022/12/14 03:50:34;;;;;;;47.20;23.95;;;-7.10;99.90;;;;;;5066856;28;20044;-36
2022/12/14 03:53:25;;;;;;;42.20;21.63;;;-7.10;99.90;;;;;;5066673;28;20048;-39
2022/12/14 03:55:54;;;;;;;42.33;21.67;;;-7.20;99.90;;;;;;5087587;28;20037;-37
2022/12/14 03:58:26;;;;;;;38.13;20.25;;;-7.20;99.90;;;;;;5071755;28;20042;-39
2022/12/14 04:00:59;;;;;;;43.50;22.45;;;-7.20;99.90;;;;;;5071775;28;20041;-38
2022/12/14 04:03:46;;;;;;;41.75;22.13;;;-7.20;99.90;;;;;;5072081;28;20116;-39
2022/12/14 04:06:23;;;;;;;40.72;21.13;;;-7.20;99.90;;;;;;5067342;28;20510;-39
2022/12/14 04:08:55;;;;;;;40.72;22.25;;;-7.20;99.90;;;;;;5071563;28;20043;-39
2022/12/14 04:20:19;;;;;;;38.80;21.48;;;-7.30;99.90;;;;;;5072603;28;20048;-39
2022/12/14 04:22:56;;;;;;;43.13;22.35;;;-7.40;99.90;;;;;;5080967;28;20037;-38
2022/12/14 04:31:08;;;;;;;45.13;21.38;;;-7.40;99.90;;;;;;5066181;28;20102;-38
2022/12/14 04:33:47;;;;;;;42.00;21.20;;;-7.40;99.90;;;;;;5071986;28;20507;-38
2022/12/14 04:36:28;;;;;;;36.53;20.25;;;-7.50;99.90;;;;;;5067878;28;20044;-37
2022/12/14 04:39:03;;;;;;;42.03;20.27;;;-7.50;99.90;;;;;;5065792;28;20401;-38
2022/12/14 04:41:35;;;;;;;41.83;21.85;;;-7.50;99.90;;;;;;5069716;28;20044;-38
2022/12/14 04:44:12;;;;;;;36.80;19.20;;;-7.40;99.90;;;;;;5071256;28;20102;-38
2022/12/14 04:46:39;;;;;;;36.50;19.25;;;-7.30;99.90;;;;;;5067976;28;20043;-35
2022/12/14 04:49:24;;;;;;;41.17;22.08;;;-7.30;99.90;;;;;;5065811;28;20554;-38
2022/12/14 04:52:00;;;;;;;40.53;20.92;;;-7.30;99.90;;;;;;5081185;28;20525;-38
2022/12/14 04:54:36;;;;;;;40.38;21.90;;;-7.30;99.90;;;;;;5070901;28;20040;-39
2022/12/14 04:57:22;;;;;;;37.83;19.90;;;-7.40;99.90;;;;;;5067346;28;20044;-39
2022/12/14 04:59:48;;;;;;;40.55;19.83;;;-7.50;99.90;;;;;;5063645;28;20386;-36
2022/12/14 05:02:20;;;;;;;38.65;20.00;;;-7.50;99.90;;;;;;5064284;28;20375;-36
2022/12/14 05:04:55;;;;;;;41.58;20.95;;;-7.60;99.90;;;;;;5067568;28;20036;-36
2022/12/14 05:07:51;;;;;;;40.42;19.88;;;-7.60;99.90;;;;;;5068177;28;20044;-38
2022/12/14 05:10:17;;;;;;;40.58;20.33;;;-7.60;99.90;;;;;;5067457;28;20106;-38
2022/12/14 05:12:49;;;;;;;37.85;19.40;;;-7.60;99.90;;;;;;5070478;28;20040;-38
2022/12/14 05:15:20;;;;;;;40.22;19.52;;;-7.60;99.90;;;;;;5067129;28;20120;-39
2022/12/14 05:17:46;;;;;;;42.50;22.15;;;-7.70;99.90;;;;;;5070314;28;20046;-38
2022/12/14 05:20:17;;;;;;;41.45;20.00;;;-7.70;99.90;;;;;;5069769;28;20037;-39
2022/12/14 05:22:43;;;;;;;37.90;19.70;;;-7.70;99.90;;;;;;5059499;28;20041;-38
2022/12/14 05:25:09;;;;;;;42.00;20.17;;;-7.70;99.90;;;;;;5066976;28;20055;-39
2022/12/14 05:27:35;;;;;;;40.38;21.27;;;-7.70;99.90;;;;;;5069738;28;20032;-39
2022/12/14 05:30:02;;;;;;;42.38;20.52;;;-7.70;99.90;;;;;;5069345;28;20044;-36
2022/12/14 05:32:28;;;;;;;43.40;20.33;;;-7.80;99.90;;;;;;5070096;28;20040;-36
2022/12/14 05:34:54;;;;;;;42.03;21.15;;;-7.80;99.90;;;;;;5070376;28;20409;-37
2022/12/14 05:37:19;;;;;;;36.30;20.67;;;-7.80;99.90;;;;;;5069851;28;20112;-38
2022/12/14 05:39:45;;;;;;;39.20;19.98;;;-7.80;99.90;;;;;;5069813;28;20068;-38
2022/12/14 05:42:11;;;;;;;41.10;21.33;;;-7.80;99.90;;;;;;5070003;28;20041;-37
2022/12/14 05:44:37;;;;;;;37.88;19.30;;;-7.90;99.90;;;;;;5063980;28;20121;-38
2022/12/14 05:47:03;;;;;;;41.80;21.67;;;-7.90;99.90;;;;;;5066918;28;20120;-37
2022/12/14 05:49:28;;;;;;;45.03;20.75;;;-7.90;99.90;;;;;;5064418;28;20047;-38
2022/12/14 05:51:54;;;;;;;48.45;22.55;;;-7.90;99.90;;;;;;5069908;28;20119;-37
2022/12/14 05:54:20;;;;;;;46.78;22.77;;;-7.90;99.90;;;;;;5065945;28;20044;-38
2022/12/14 05:56:46;;;;;;;45.15;20.20;;;-7.90;99.90;;;;;;5069906;28;20107;-38
2022/12/14 05:59:14;;;;;;;41.05;21.30;;;-7.90;99.90;;;;;;5068499;28;20561;-38
2022/12/14 06:01:42;;;;;;;45.40;21.77;;;-7.90;99.90;;;;;;5081585;28;20452;-38
2022/12/14 06:04:09;;;;;;;43.35;20.17;;;-7.90;99.90;;;;;;5081752;28;20043;-38
2022/12/14 06:06:35;;;;;;;44.45;20.38;;;-7.90;99.90;;;;;;5078656;28;20379;-38
2022/12/14 06:09:04;;;;;;;44.30;21.40;;;-8.00;99.90;;;;;;5082044;28;20089;-38
2022/12/14 06:11:29;;;;;;;42.38;21.13;;;-7.90;99.90;;;;;;5082506;28;20094;-38
2022/12/14 06:13:55;;;;;;;43.47;21.70;;;-8.00;99.90;;;;;;5083336;28;20038;-37
2022/12/14 06:16:24;;;;;;;44.97;21.48;;;-8.00;99.90;;;;;;5078554;28;20036;-38
2022/12/14 06:18:55;;;;;;;44.33;20.77;;;-8.00;99.90;;;;;;5065133;28;20120;-38
2022/12/14 06:21:28;;;;;;;40.53;21.05;;;-8.00;99.90;;;;;;5068623;28;20070;-38
2022/12/14 06:23:54;;;;;;;42.15;20.95;;;-8.00;99.90;;;;;;5084147;28;20402;-38
2022/12/14 06:26:20;;;;;;;45.72;22.10;;;-8.00;99.90;;;;;;5066317;28;20033;-37
2022/12/14 06:28:46;;;;;;;41.83;21.75;;;-8.00;99.90;;;;;;5050801;28;20037;-37
2022/12/14 06:31:23;;;;;;;41.72;21.50;;;-8.00;99.90;;;;;;5083131;28;20366;-38
2022/12/14 06:33:50;;;;;;;40.67;20.30;;;-8.00;99.90;;;;;;5082260;28;20040;-38
2022/12/14 06:36:25;;;;;;;41.10;20.70;;;-8.10;99.90;;;;;;5082770;28;20116;-38
2022/12/14 06:38:52;;;;;;;39.80;20.02;;;-8.00;99.90;;;;;;5066145;28;20115;-38
2022/12/14 06:41:19;;;;;;;38.10;19.83;;;-8.10;99.90;;;;;;5064589;28;20532;-38
2022/12/14 06:43:46;;;;;;;38.92;19.60;;;-8.10;99.90;;;;;;5072899;28;20078;-37
2022/12/14 06:46:14;;;;;;;39.33;20.08;;;-8.10;99.90;;;;;;5075328;28;20055;-38
2022/12/14 06:48:41;;;;;;;40.00;20.85;;;-8.10;99.90;;;;;;5084014;28;20037;-37
2022/12/14 06:51:07;;;;;;;40.65;20.25;;;-8.10;99.90;;;;;;5065427;28;20072;-38
2022/12/14 06:53:34;;;;;;;41.20;20.33;;;-8.10;99.90;;;;;;5061906;28;20444;-38
2022/12/14 06:56:16;;;;;;;38.47;20.50;;;-8.20;99.90;;;;;;5073916;28;20552;-38
2022/12/14 06:58:43;;;;;;;40.40;20.33;;;-8.20;99.90;;;;;;5069259;28;20043;-38
2022/12/14 07:01:14;;;;;;;36.42;18.95;;;-8.20;99.90;;;;;;5072653;28;20041;-38
2022/12/14 07:03:41;;;;;;;43.38;21.25;;;-8.20;99.90;;;;;;5081984;28;20036;-38
2022/12/14 07:06:09;;;;;;;43.60;22.40;;;-8.20;99.90;;;;;;5064765;28;20036;-38
2022/12/14 07:08:36;;;;;;;39.92;20.38;;;-8.20;99.90;;;;;;5071899;28;20143;-38
2022/12/14 07:11:04;;;;;;;41.47;21.42;;;-8.20;99.90;;;;;;5072849;28;20028;-37
2022/12/14 07:13:29;;;;;;;43.13;22.13;;;-8.20;99.90;;;;;;5073199;28;20079;-37
2022/12/14 07:15:57;;;;;;;43.25;21.90;;;-8.20;99.90;;;;;;5073319;28;20497;-37
2022/12/14 07:18:23;;;;;;;34.20;20.15;;;-8.20;99.90;;;;;;5072998;28;20074;-38
2022/12/14 07:21:01;;;;;;;46.58;23.00;;;-8.20;99.90;;;;;;5072831;28;20070;-37
2022/12/14 07:23:29;;;;;;;47.53;21.65;;;-8.20;99.90;;;;;;5072547;28;20044;-38
2022/12/14 07:26:07;;;;;;;40.90;19.52;;;-8.20;99.90;;;;;;5072758;28;20044;-38
2022/12/14 07:28:35;;;;;;;39.33;21.08;;;-8.10;99.90;;;;;;5068929;28;20075;-38
2022/12/14 07:31:02;;;;;;;36.47;18.35;;;-8.20;99.90;;;;;;5072531;28;20401;-37
2022/12/14 07:33:28;;;;;;;39.97;20.23;;;-8.20;99.90;;;;;;5072740;28;20045;-37
2022/12/14 07:36:05;;;;;;;42.40;20.23;;;-8.20;99.90;;;;;;5072990;28;20455;-37
2022/12/14 07:38:31;;;;;;;36.35;19.95;;;-8.20;99.90;;;;;;5065860;28;20037;-37
2022/12/14 07:41:09;;;;;;;40.78;21.50;;;-8.20;99.90;;;;;;5053999;28;20032;-37
2022/12/14 07:43:36;;;;;;;45.33;21.20;;;-8.20;99.90;;;;;;5066203;28;20043;-38
2022/12/14 07:46:05;;;;;;;39.92;20.77;;;-8.20;99.90;;;;;;5072266;28;20111;-38
2022/12/14 07:48:32;;;;;;;40.97;21.55;;;-8.20;99.90;;;;;;5067200;28;20029;-38
2022/12/14 07:51:10;;;;;;;39.75;20.23;;;-8.20;99.90;;;;;;5071864;28;20120;-38
2022/12/14 07:53:37;;;;;;;41.17;20.65;;;-8.20;99.90;;;;;;5077594;28;20394;-37
2022/12/14 07:56:09;;;;;;;41.40;20.35;;;-8.20;99.90;;;;;;5073872;28;20036;-36
2022/12/14 07:58:36;;;;;;;38.50;20.23;;;-8.20;99.90;;;;;;5072376;28;20140;-38
2022/12/14 08:01:21;;;;;;;43.47;20.88;;;-8.20;99.90;;;;;;5071996;28;20076;-37
2022/12/14 08:03:50;;;;;;;37.60;20.15;;;-8.20;99.90;;;;;;5075629;28;20032;-37
2022/12/14 08:06:17;;;;;;;34.25;18.73;;;-8.20;99.90;;;;;;5067608;28;20028;-38
2022/12/14 08:08:43;;;;;;;37.45;20.73;;;-8.20;99.90;;;;;;5071534;28;20032;-37
2022/12/14 08:11:10;;;;;;;43.17;20.77;;;-8.10;99.90;;;;;;5071822;28;20040;-37
2022/12/14 08:13:37;;;;;;;45.47;21.30;;;-8.10;99.90;;;;;;5071612;28;20040;-37
2022/12/14 08:16:09;;;;;;;39.50;20.63;;;-8.10;99.90;;;;;;5071574;28;20394;-37
2022/12/14 08:18:35;;;;;;;37.50;19.23;;;-8.10;99.90;;;;;;5071782;28;20548;-37
2022/12/14 08:21:02;;;;;;;44.58;21.25;;;-8.10;99.90;;;;;;5071451;28;20049;-38
2022/12/14 08:23:28;;;;;;;41.97;21.88;;;-8.10;99.90;;;;;;5077170;28;20032;-38
2022/12/14 08:25:55;;;;;;;36.00;19.00;;;-8.00;99.90;;;;;;5070738;28;20040;-38
2022/12/14 08:28:21;;;;;;;42.83;21.42;;;-8.00;99.90;;;;;;5065066;28;20108;-38
2022/12/14 08:30:47;;;;;;;38.83;19.70;;;-8.00;99.90;;;;;;5068120;28;20037;-38
2022/12/14 08:33:13;;;;;;;39.95;21.08;;;-8.00;99.90;;;;;;5070723;28;20043;-38
2022/12/14 08:35:39;;;;;;;45.67;20.98;;;-8.00;99.90;;;;;;5051663;28;20413;-37
2022/12/14 08:38:04;;;;;;;40.17;19.80;;;-8.00;99.90;;;;;;5071830;28;20453;-39
2022/12/14 08:40:34;;;;;;;37.25;19.30;;;-7.90;99.90;;;;;;5069394;28;20037;-38
2022/12/14 08:42:59;;;;;;;45.05;22.23;;;-7.80;99.90;;;;;;5070484;28;20039;-38
2022/12/14 08:45:25;;;;;;;42.10;21.13;;;-7.80;99.90;;;;;;5076702;28;20032;-37
2022/12/14 08:47:51;;;;;;;44.85;22.00;;;-7.70;99.90;;;;;;5062305;28;20111;-38
2022/12/14 08:50:17;;;;;;;45.55;21.23;;;-7.70;99.90;;;;;;5066156;28;20073;-38
2022/12/14 08:52:46;;;;;;;42.50;21.65;;;-7.60;99.90;;;;;;5069701;28;20394;-38
2022/12/14 08:55:11;;;;;;;48.15;20.70;;;-7.50;99.90;;;;;;5072401;28;20076;-38
2022/12/14 08:57:37;;;;;;;39.08;19.63;;;-7.50;99.90;;;;;;5070653;28;20075;-35
2022/12/14 09:00:03;;;;;;;41.80;21.88;;;-7.50;99.90;;;;;;5063359;28;20420;-35
2022/12/14 09:02:29;;;;;;;42.20;20.13;;;-7.40;99.90;;;;;;5069778;28;20075;-35
2022/12/14 09:04:55;;;;;;;48.85;22.10;;;-7.40;99.90;;;;;;5069713;28;20036;-35
2022/12/14 09:07:20;;;;;;;46.50;22.98;;;-7.30;99.90;;;;;;5070396;28;20044;-35
2022/12/14 09:09:46;;;;;;;49.30;22.98;;;-7.30;99.90;;;;;;5065080;28;20037;-35
2022/12/14 09:12:12;;;;;;;47.92;21.85;;;-7.10;99.90;;;;;;5079422;28;20036;-35
2022/12/14 09:14:37;;;;;;;45.90;23.10;;;-6.90;99.90;;;;;;5078639;28;20039;-35
2022/12/14 09:17:03;;;;;;;45.80;22.73;;;-6.70;99.90;;;;;;5083603;28;20068;-35
2022/12/14 09:19:29;;;;;;;44.97;21.70;;;-6.50;99.90;;;;;;5073910;28;20037;-35
2022/12/14 09:21:55;;;;;;;42.58;22.60;;;-6.20;99.90;;;;;;5071579;28;20051;-35
2022/12/14 09:24:23;;;;;;;49.08;22.92;;;-5.80;99.90;;;;;;5069179;28;20028;-35
2022/12/14 09:26:49;;;;;;;44.95;23.42;;;-5.40;99.90;;;;;;5074778;28;20482;-35
2022/12/14 09:29:17;;;;;;;45.33;23.52;;;-5.00;99.90;;;;;;5072641;28;20283;-35
2022/12/14 09:31:44;;;;;;;47.95;23.95;;;-4.60;99.90;;;;;;5071536;28;20034;-35
2022/12/14 09:34:09;;;;;;;55.00;26.02;;;-4.00;99.90;;;;;;5072554;28;20033;-37
2022/12/14 09:36:37;;;;;;;51.03;25.88;;;-3.20;99.90;;;;;;5071261;28;20033;-34
2022/12/14 09:39:03;;;;;;;38.20;21.33;;;-2.20;99.90;;;;;;5069006;28;20032;-35
2022/12/14 09:41:34;;;;;;;43.25;23.17;;;-1.30;99.90;;;;;;5070226;28;20413;-35
2022/12/14 09:44:13;;;;;;;39.38;22.90;;;-0.40;99.90;;;;;;5067347;28;20240;-36
2022/12/14 09:46:42;;;;;;;35.05;20.50;;;0.50;99.90;;;;;;5084064;28;20040;-36
2022/12/14 09:49:29;;;;;;;37.72;21.02;;;1.20;99.90;;;;;;5069794;28;20082;-35
2022/12/14 09:52:02;;;;;;;34.10;21.15;;;1.80;99.90;;;;;;5063755;28;20071;-36
2022/12/14 09:54:39;;;;;;;31.80;19.40;;;2.30;99.90;;;;;;5070393;28;20453;-36
2022/12/14 09:57:12;;;;;;;34.38;19.17;;;2.50;99.90;;;;;;5064058;28;20090;-36
2022/12/14 09:59:38;;;;;;;36.15;19.38;;;2.50;99.90;;;;;;5069915;28;20048;-36
2022/12/14 10:02:37;;;;;;;28.77;19.00;;;2.70;99.90;;;;;;5074394;28;20098;-35
2022/12/14 10:05:31;;;;;;;29.98;19.48;;;2.90;99.90;;;;;;5069431;28;20032;-35
2022/12/14 10:08:03;;;;;;;30.00;18.58;;;2.90;99.90;;;;;;5070349;28;20036;-36
2022/12/14 10:10:41;;;;;;;31.77;18.27;;;2.80;99.90;;;;;;5068633;28;20036;-36
2022/12/14 10:13:31;;;;;;;31.17;19.42;;;2.60;99.90;;;;;;5071721;28;20033;-36
2022/12/14 10:16:21;;;;;;;31.77;19.33;;;2.20;99.90;;;;;;5070014;28;20500;-36
2022/12/14 10:19:05;;;;;;;27.88;18.17;;;1.70;99.90;;;;;;5071272;28;20055;-36
2022/12/14 10:22:05;;;;;;;30.80;18.92;;;1.60;99.90;;;;;;5072775;28;20119;-35
2022/12/14 10:24:42;;;;;;;30.40;18.55;;;1.30;99.90;;;;;;5074419;28;20056;-36
2022/12/14 10:27:11;;;;;;;30.80;17.60;;;1.00;99.90;;;;;;5074416;28;20082;-36
2022/12/14 10:29:45;;;;;;;29.13;17.55;;;0.50;99.90;;;;;;5074402;28;20072;-35
2022/12/14 10:32:18;;;;;;;31.08;19.08;;;0.20;99.90;;;;;;5074226;28;20082;-36
2022/12/14 10:34:44;;;;;;;34.28;19.30;;;0.00;99.90;;;;;;5070190;28;20494;-36
2022/12/14 10:37:26;;;;;;;31.95;19.20;;;-0.10;99.90;;;;;;5068479;28;20448;-36
2022/12/14 10:40:20;;;;;;;30.67;18.88;;;-0.10;99.90;;;;;;5064438;28;20040;-35
2022/12/14 10:43:07;;;;;;;31.80;19.20;;;-0.20;99.90;;;;;;5088786;28;20120;-35
2022/12/14 10:45:55;;;;;;;34.17;19.63;;;0.10;99.90;;;;;;5057251;28;20036;-35
2022/12/14 10:48:51;;;;;;;29.05;17.63;;;1.30;99.90;;;;;;5073668;28;20036;-36
2022/12/14 10:51:43;;;;;;;29.65;19.23;;;2.60;99.90;;;;;;5089679;28;20039;-36
2022/12/14 10:54:18;;;;;;;28.63;17.88;;;3.70;99.90;;;;;;5073619;28;20043;-36
2022/12/14 10:56:46;;;;;;;28.90;18.65;;;4.20;99.90;;;;;;5066304;28;20041;-36
2022/12/14 10:59:22;;;;;;;28.30;18.73;;;4.40;99.90;;;;;;5058325;28;20041;-36
2022/12/14 11:01:58;;;;;;;27.77;17.10;;;4.50;99.90;;;;;;5072224;28;20047;-36
2022/12/14 11:04:29;;;;;;;26.95;18.73;;;4.90;99.90;;;;;;5071202;28;20033;-36
2022/12/14 11:06:58;;;;;;;28.15;17.65;;;5.60;99.90;;;;;;5073227;28;20045;-36
2022/12/14 11:09:25;;;;;;;29.52;19.02;;;6.50;99.90;;;;;;5075068;28;20044;-36
2022/12/14 11:12:01;;;;;;;23.52;15.90;;;6.90;99.90;;;;;;5073601;28;20103;-36
2022/12/14 11:14:28;;;;;;;25.30;17.73;;;7.00;99.90;;;;;;5071519;28;20036;-37
2022/12/14 11:16:53;;;;;;;30.17;19.42;;;7.10;99.90;;;;;;5074403;28;20029;-36
2022/12/14 11:19:22;;;;;;;26.80;18.70;;;6.90;99.90;;;;;;5073832;28;20039;-36
2022/12/14 11:21:49;;;;;;;26.13;18.48;;;6.40;99.90;;;;;;5073923;28;20443;-36
2022/12/14 11:24:26;;;;;;;24.38;17.85;;;6.00;99.90;;;;;;5073736;28;20040;-36
2022/12/14 11:26:57;;;;;;;25.33;17.90;;;6.20;99.90;;;;;;5073190;28;20064;-36
2022/12/14 11:29:46;;;;;;;26.23;17.85;;;6.30;99.90;;;;;;5072791;28;20044;-36
2022/12/14 11:32:22;;;;;;;23.20;17.30;;;6.50;99.90;;;;;;5072269;28;20043;-36
2022/12/14 11:34:57;;;;;;;25.90;17.42;;;6.40;99.90;;;;;;5073270;28;20045;-36
2022/12/14 11:37:29;;;;;;;23.95;17.42;;;6.80;99.90;;;;;;5057024;28;20173;-36
2022/12/14 11:40:02;;;;;;;26.42;16.45;;;7.20;99.90;;;;;;5072535;28;20064;-36
2022/12/14 11:42:29;;;;;;;23.05;16.92;;;7.20;99.90;;;;;;5073204;28;20067;-36
2022/12/14 11:45:26;;;;;;;20.98;15.70;;;6.80;99.90;;;;;;5073050;28;20158;-36
2022/12/14 11:48:13;;;;;;;26.33;16.38;;;6.10;99.90;;;;;;5067830;28;20080;-37
2022/12/14 11:50:44;;;;;;;45.53;30.15;;;5.40;99.90;;;;;;5070856;28;20036;-36
2022/12/14 11:53:13;;;;;;;26.83;17.92;;;4.90;99.90;;;;;;5074835;28;20036;-36
2022/12/14 11:55:46;;;;;;;43.72;28.73;;;4.40;99.90;;;;;;5073285;28;20115;-36
2022/12/14 11:58:27;;;;;;;35.65;23.10;;;4.30;99.90;;;;;;5073904;28;20040;-36
2022/12/14 12:01:03;;;;;;;25.42;19.30;;;4.40;99.90;;;;;;5088518;28;20102;-36
2022/12/14 12:03:44;;;;;;;26.33;16.55;;;5.00;99.90;;;;;;5071347;28;20029;-37
2022/12/14 12:06:17;;;;;;;25.20;17.40;;;5.10;99.90;;;;;;5071010;28;20036;-37
2022/12/14 12:08:43;;;;;;;23.88;15.88;;;4.60;99.90;;;;;;5066073;28;20123;-36
2022/12/14 12:11:21;;;;;;;26.58;16.90;;;4.00;99.90;;;;;;5073384;28;20444;-36
2022/12/14 12:13:51;;;;;;;25.42;17.30;;;3.30;99.90;;;;;;5070113;28;20559;-36
2022/12/14 12:16:20;;;;;;;22.63;16.58;;;2.80;99.90;;;;;;5070208;28;20033;-36
2022/12/14 12:18:53;;;;;;;22.23;15.48;;;2.40;99.90;;;;;;5070690;28;20125;-36
2022/12/14 12:21:28;;;;;;;22.40;15.80;;;2.00;99.90;;;;;;5074023;28;20375;-37
2022/12/14 12:24:09;;;;;;;24.05;15.77;;;1.60;99.90;;;;;;5073544;28;20099;-35
2022/12/14 12:26:40;;;;;;;24.55;16.33;;;1.20;99.90;;;;;;5074558;28;20036;-36
2022/12/14 12:29:21;;;;;;;24.25;16.48;;;1.00;99.90;;;;;;5073360;28;20037;-35
2022/12/14 12:32:17;;;;;;;25.42;16.92;;;0.80;99.90;;;;;;5073841;28;20435;-35
2022/12/14 12:34:46;;;;;;;24.80;16.38;;;0.60;99.90;;;;;;5081584;28;20026;-36
2022/12/14 12:37:20;;;;;;;22.85;15.48;;;0.40;99.90;;;;;;5072507;28;20048;-36
2022/12/14 12:39:54;;;;;;;27.05;16.50;;;0.20;99.90;;;;;;5071771;28;20123;-36
2022/12/14 12:42:45;;;;;;;23.63;16.10;;;0.10;99.90;;;;;;5073068;28;20109;-35
2022/12/14 12:45:23;;;;;;;23.40;15.15;;;0.30;99.90;;;;;;5063219;28;20299;-36
2022/12/14 12:47:59;;;;;;;21.88;16.10;;;1.00;99.90;;;;;;5077957;28;20045;-36
2022/12/14 12:50:34;;;;;;;22.63;14.98;;;1.50;99.90;;;;;;5071756;28;20043;-36
2022/12/14 12:53:15;;;;;;;22.08;15.05;;;1.50;99.90;;;;;;5072575;28;20041;-36
2022/12/14 12:55:46;;;;;;;24.95;16.13;;;1.30;99.90;;;;;;5069819;28;20077;-36
2022/12/14 12:58:21;;;;;;;24.45;16.00;;;1.20;99.90;;;;;;5083562;28;20044;-35
2022/12/14 13:00:50;;;;;;;24.33;15.88;;;0.90;99.90;;;;;;5070302;28;20152;-35
2022/12/14 13:03:36;;;;;;;23.77;15.30;;;0.60;99.90;;;;;;5072502;28;20088;-35
2022/12/14 13:06:20;;;;;;;21.45;14.63;;;0.50;99.90;;;;;;5059472;28;20037;-36
2022/12/14 13:08:51;;;;;;;23.40;15.25;;;0.30;99.90;;;;;;5065291;28;20036;-36